createdAt,value
2023-01-19T00:00:52.168Z,5.10
2023-01-19T00:03:19.088Z,4.57
2023-01-19T00:05:46.755Z,4.75
2023-01-19T00:08:15.259Z,4.25
2023-01-19T00:10:42.554Z,4.57
2023-01-19T00:13:09.295Z,4.63
2023-01-19T00:15:36.019Z,4.45
2023-01-19T00:18:02.834Z,5.05
2023-01-19T00:20:29.632Z,4.80
2023-01-19T00:22:56.416Z,5.72
2023-01-19T00:25:24.511Z,5.80
2023-01-19T00:27:51.196Z,4.18
2023-01-19T00:30:18.294Z,4.35
2023-01-19T00:32:45.039Z,5.07
2023-01-19T00:35:11.739Z,5.25
2023-01-19T00:37:38.436Z,4.75
2023-01-19T00:40:06.485Z,4.80
2023-01-19T00:42:34.493Z,5.22
2023-01-19T00:45:01.244Z,4.93
2023-01-19T00:47:27.957Z,5.10
2023-01-19T00:49:54.675Z,5.22
2023-01-19T00:52:21.403Z,5.85
2023-01-19T00:54:48.106Z,6.13
2023-01-19T00:57:15.654Z,6.00
2023-01-19T00:59:43.673Z,5.93
2023-01-19T01:02:10.674Z,5.38
2023-01-19T01:04:37.507Z,5.32
2023-01-19T01:07:04.320Z,6.18
2023-01-19T01:09:31.254Z,5.45
2023-01-19T01:11:57.973Z,5.70
2023-01-19T01:14:26.600Z,5.55
2023-01-19T01:16:54.809Z,5.43
2023-01-19T01:19:21.612Z,4.75
2023-01-19T01:21:48.393Z,6.13
2023-01-19T01:24:15.109Z,5.30
2023-01-19T01:26:41.795Z,5.75
2023-01-19T01:29:08.610Z,5.00
2023-01-19T01:31:35.484Z,5.05
2023-01-19T01:34:03.718Z,4.18
2023-01-19T01:36:30.618Z,4.72
2023-01-19T01:38:57.423Z,4.43
2023-01-19T01:41:25.372Z,5.65
2023-01-19T01:43:53.694Z,5.28
2023-01-19T01:46:20.649Z,5.68
2023-01-19T01:48:54.686Z,5.25
2023-01-19T01:51:29.169Z,4.63
2023-01-19T01:54:08.452Z,5.10
2023-01-19T01:56:37.885Z,5.05
2023-01-19T01:59:08.885Z,5.05
2023-01-19T02:01:36.521Z,5.00
2023-01-19T02:04:03.427Z,5.97
2023-01-19T02:06:31.489Z,5.90
2023-01-19T02:09:03.595Z,5.72
2023-01-19T02:11:31.701Z,5.85
2023-01-19T02:13:58.619Z,5.32
2023-01-19T02:16:25.376Z,5.05
2023-01-19T02:18:52.161Z,5.60
2023-01-19T02:21:22.497Z,5.00
2023-01-19T02:23:52.727Z,5.00
2023-01-19T02:26:22.025Z,5.72
2023-01-19T02:28:52.358Z,5.30
2023-01-19T02:31:19.791Z,5.50
2023-01-19T02:33:46.542Z,6.25
2023-01-19T02:36:16.744Z,6.00
2023-01-19T02:38:45.544Z,5.25
2023-01-19T02:41:18.366Z,5.57
2023-01-19T02:43:46.928Z,5.00
2023-01-19T02:46:14.365Z,6.15
2023-01-19T02:48:41.559Z,4.20
2023-01-19T02:51:13.886Z,5.30
2023-01-19T02:53:57.855Z,6.13
2023-01-19T02:56:42.364Z,5.07
2023-01-19T02:59:15.533Z,5.60
2023-01-19T03:02:01.405Z,5.53
2023-01-19T03:04:40.515Z,5.97
2023-01-19T03:07:14.161Z,5.97
2023-01-19T03:09:47.342Z,6.63
2023-01-19T03:12:25.289Z,5.60
2023-01-19T03:14:56.369Z,5.30
2023-01-19T03:17:23.117Z,5.47
2023-01-19T03:19:52.141Z,5.70
2023-01-19T03:22:23.964Z,5.40
2023-01-19T03:24:52.667Z,5.95
2023-01-19T03:27:25.493Z,4.97
2023-01-19T03:29:55.491Z,5.03
2023-01-19T03:32:28.077Z,6.55
2023-01-19T03:34:56.823Z,6.45
2023-01-19T03:37:25.905Z,6.30
2023-01-19T03:39:52.692Z,6.00
2023-01-19T03:42:21.494Z,5.38
2023-01-19T03:44:48.607Z,5.38
2023-01-19T03:47:15.433Z,6.07
2023-01-19T03:49:45.023Z,6.68
2023-01-19T03:52:11.992Z,5.47
2023-01-19T03:54:38.734Z,5.95
2023-01-19T03:57:05.418Z,6.28
2023-01-19T03:59:33.489Z,5.60
2023-01-19T04:02:00.429Z,6.47
2023-01-19T04:04:27.195Z,5.80
2023-01-19T04:06:53.906Z,5.78
2023-01-19T04:09:20.586Z,6.00
2023-01-19T04:11:47.302Z,5.90
2023-01-19T04:14:13.982Z,5.90
2023-01-19T04:16:42.075Z,6.95
2023-01-19T04:19:08.775Z,6.38
2023-01-19T04:21:35.549Z,6.35
2023-01-19T04:24:02.272Z,5.60
2023-01-19T04:26:28.986Z,5.68
2023-01-19T04:28:55.686Z,5.82
2023-01-19T04:31:22.401Z,5.68
2023-01-19T04:33:50.677Z,5.55
2023-01-19T04:36:17.387Z,5.05
2023-01-19T04:38:44.078Z,5.57
2023-01-19T04:41:10.774Z,6.15
2023-01-19T04:43:37.468Z,5.07
2023-01-19T04:46:04.429Z,5.10
2023-01-19T04:48:31.146Z,5.60
2023-01-19T04:50:59.267Z,5.63
2023-01-19T04:53:26.055Z,4.80
2023-01-19T04:55:53.908Z,5.78
2023-01-19T04:58:20.703Z,5.75
2023-01-19T05:00:47.617Z,5.80
2023-01-19T05:03:14.434Z,6.50
2023-01-19T05:05:41.268Z,5.30
2023-01-19T05:08:09.301Z,5.88
2023-01-19T05:10:36.008Z,5.38
2023-01-19T05:13:03.062Z,6.15
2023-01-19T05:15:30.032Z,6.10
2023-01-19T05:17:56.765Z,6.55
2023-01-19T05:20:23.604Z,6.57
2023-01-19T05:22:50.836Z,6.22
2023-01-19T05:25:19.519Z,5.85
2023-01-19T05:27:46.353Z,5.93
2023-01-19T05:30:13.741Z,6.03
2023-01-19T05:32:41.029Z,5.93
2023-01-19T05:35:09.105Z,5.65
2023-01-19T05:37:35.852Z,5.07
2023-01-19T05:40:03.262Z,5.30
2023-01-19T05:42:32.842Z,5.72
2023-01-19T05:44:59.994Z,5.47
2023-01-19T05:47:28.905Z,5.18
2023-01-19T05:49:55.600Z,6.00
2023-01-19T05:52:22.425Z,5.43
2023-01-19T05:54:49.129Z,5.30
2023-01-19T05:57:15.831Z,4.68
2023-01-19T05:59:43.963Z,5.63
2023-01-19T06:02:10.789Z,5.13
2023-01-19T06:04:37.613Z,5.30
2023-01-19T06:07:05.125Z,6.00
2023-01-19T06:09:31.900Z,5.50
2023-01-19T06:11:58.887Z,4.88
2023-01-19T06:14:25.610Z,4.28
2023-01-19T06:16:53.695Z,4.93
2023-01-19T06:19:20.410Z,4.85
2023-01-19T06:21:48.810Z,5.65
2023-01-19T06:24:15.781Z,5.07
2023-01-19T06:26:42.470Z,4.90
2023-01-19T06:29:09.652Z,5.45
2023-01-19T06:31:36.559Z,5.60
2023-01-19T06:34:04.707Z,5.55
2023-01-19T06:36:31.410Z,5.30
2023-01-19T06:38:58.154Z,5.35
2023-01-19T06:41:24.895Z,5.40
2023-01-19T06:43:51.593Z,5.30
2023-01-19T06:46:18.371Z,5.65
2023-01-19T06:48:45.223Z,5.90
2023-01-19T06:51:13.276Z,5.50
2023-01-19T06:53:40.041Z,6.47
2023-01-19T06:56:07.265Z,6.15
2023-01-19T06:58:34.300Z,5.15
2023-01-19T07:01:01.797Z,6.13
2023-01-19T07:03:28.638Z,5.88
2023-01-19T07:05:55.398Z,6.18
2023-01-19T07:08:24.027Z,6.22
2023-01-19T07:11:26.013Z,6.40
2023-01-19T07:13:39.400Z,5.95
2023-01-19T07:16:08.318Z,5.65
2023-01-19T07:18:35.427Z,6.10
2023-01-19T07:21:02.724Z,6.40
2023-01-19T07:23:30.919Z,6.55
2023-01-19T07:25:57.798Z,5.82
2023-01-19T07:28:24.619Z,6.22
2023-01-19T07:30:52.172Z,5.28
2023-01-19T07:33:18.911Z,5.20
2023-01-19T07:35:46.970Z,6.03
2023-01-19T07:38:13.768Z,6.38
2023-01-19T07:40:42.088Z,5.25
2023-01-19T07:43:09.133Z,5.35
2023-01-19T07:45:36.111Z,5.85
2023-01-19T07:48:02.940Z,5.75
2023-01-19T07:50:29.628Z,5.55
2023-01-19T07:52:56.818Z,6.07
2023-01-19T07:55:24.423Z,5.05
2023-01-19T07:57:52.498Z,6.50
2023-01-19T08:00:20.616Z,5.50
2023-01-19T08:02:47.411Z,5.93
2023-01-19T08:05:14.179Z,6.47
2023-01-19T08:07:40.890Z,5.20
2023-01-19T08:10:08.585Z,5.90
2023-01-19T08:12:35.298Z,5.78
2023-01-19T08:15:04.077Z,5.53
2023-01-19T08:17:30.744Z,5.85
2023-01-19T08:19:57.482Z,4.85
2023-01-19T08:22:24.214Z,5.28
2023-01-19T08:24:50.946Z,5.25
2023-01-19T08:27:17.728Z,5.85
2023-01-19T08:29:44.453Z,6.05
2023-01-19T08:32:12.789Z,5.53
2023-01-19T08:34:39.595Z,6.15
2023-01-19T08:37:06.335Z,5.60
2023-01-19T08:39:33.075Z,5.90
2023-01-19T08:41:59.783Z,6.15
2023-01-19T08:44:26.875Z,5.95
2023-01-19T08:46:53.630Z,5.28
2023-01-19T08:49:21.671Z,5.78
2023-01-19T08:51:48.395Z,5.72
2023-01-19T08:54:16.275Z,5.50
2023-01-19T08:56:43.913Z,5.75
2023-01-19T08:59:12.935Z,5.68
2023-01-19T09:01:39.977Z,4.90
2023-01-19T09:04:06.982Z,4.82
2023-01-19T09:06:35.227Z,5.45
2023-01-19T09:09:02.113Z,5.47
2023-01-19T09:11:28.842Z,5.18
2023-01-19T09:13:55.585Z,5.40
2023-01-19T09:16:22.322Z,5.85
2023-01-19T09:18:49.083Z,5.00
2023-01-19T09:21:15.795Z,5.75
2023-01-19T09:23:43.864Z,5.55
2023-01-19T09:26:10.860Z,6.18
2023-01-19T09:28:37.891Z,5.10
2023-01-19T09:31:06.077Z,5.18
2023-01-19T09:33:33.207Z,3.80
2023-01-19T09:35:59.909Z,4.63
2023-01-19T09:38:26.599Z,4.03
2023-01-19T09:40:55.765Z,4.75
2023-01-19T09:43:34.730Z,5.00
2023-01-19T09:46:03.214Z,5.45
2023-01-19T09:48:39.049Z,6.00
2023-01-19T09:51:10.455Z,5.10
2023-01-19T09:53:49.883Z,4.40
2023-01-19T09:56:20.084Z,5.40
2023-01-19T09:58:47.993Z,5.03
2023-01-19T10:01:35.301Z,5.13
2023-01-19T10:04:26.925Z,5.70
2023-01-19T10:07:01.144Z,5.43
2023-01-19T10:09:32.194Z,4.55
2023-01-19T10:12:08.325Z,4.82
2023-01-19T10:14:45.019Z,4.68
2023-01-19T10:17:24.091Z,5.43
2023-01-19T10:19:55.215Z,5.10
2023-01-19T10:22:24.310Z,5.38
2023-01-19T10:24:54.882Z,4.93
2023-01-19T10:27:26.369Z,3.92
2023-01-19T10:29:53.139Z,3.72
2023-01-19T10:32:25.231Z,4.07
2023-01-19T10:34:53.304Z,3.72
2023-01-19T10:37:28.829Z,4.80
2023-01-19T10:39:57.923Z,4.22
2023-01-19T10:42:29.549Z,3.90
2023-01-19T10:44:56.270Z,4.75
2023-01-19T10:47:30.446Z,3.25
2023-01-19T10:49:57.299Z,4.70
2023-01-19T10:52:29.428Z,4.05
2023-01-19T10:54:56.598Z,4.78
2023-01-19T10:57:29.046Z,2.83
2023-01-19T10:59:56.012Z,3.53
2023-01-19T11:02:24.299Z,3.45
2023-01-19T11:04:53.105Z,4.07
2023-01-19T11:07:21.927Z,3.42
2023-01-19T11:09:49.256Z,5.00
2023-01-19T11:12:18.471Z,3.78
2023-01-19T11:14:47.333Z,3.78
2023-01-19T11:17:19.848Z,4.07
2023-01-19T11:19:54.636Z,3.85
2023-01-19T11:22:27.340Z,3.95
2023-01-19T11:24:58.522Z,3.63
2023-01-19T11:27:26.430Z,3.70
2023-01-19T11:30:02.264Z,3.50
2023-01-19T11:32:28.990Z,3.00
2023-01-19T11:34:55.787Z,3.40
2023-01-19T11:37:28.343Z,3.80
2023-01-19T11:39:57.585Z,2.70
2023-01-19T11:42:25.689Z,3.85
2023-01-19T11:45:01.642Z,2.75
2023-01-19T11:47:32.351Z,2.33
2023-01-19T11:50:02.673Z,4.30
2023-01-19T11:52:34.498Z,3.40
2023-01-19T11:55:06.809Z,2.70
2023-01-19T11:57:33.698Z,3.60
2023-01-19T12:00:04.409Z,3.58
2023-01-19T12:02:43.147Z,3.45
2023-01-19T12:05:15.674Z,3.60
2023-01-19T12:07:45.324Z,2.08
2023-01-19T12:10:23.643Z,4.07
2023-01-19T12:12:52.122Z,3.20
2023-01-19T12:15:29.501Z,2.90
2023-01-19T12:18:00.142Z,3.40
2023-01-19T12:20:30.621Z,3.95
2023-01-19T12:23:07.129Z,3.65
2023-01-19T12:25:47.084Z,3.30
2023-01-19T12:28:16.601Z,3.13
2023-01-19T12:30:49.424Z,3.38
2023-01-19T12:33:31.407Z,4.13
2023-01-19T12:35:59.928Z,3.13
2023-01-19T12:38:44.040Z,3.40
2023-01-19T12:41:32.792Z,3.35
2023-01-19T12:44:21.132Z,2.92
2023-01-19T12:46:52.098Z,3.80
2023-01-19T12:49:25.580Z,3.03
2023-01-19T12:51:55.375Z,2.40
2023-01-19T12:54:29.597Z,2.58
2023-01-19T12:56:59.817Z,2.50
2023-01-19T12:59:27.853Z,2.50
2023-01-19T13:02:40.290Z,2.40
2023-01-19T13:05:12.711Z,2.38
2023-01-19T13:08:14.645Z,2.15
2023-01-19T13:11:18.313Z,1.88
2023-01-19T13:14:04.759Z,2.58
2023-01-19T13:16:57.400Z,1.92
2023-01-19T13:19:37.076Z,2.63
2023-01-19T13:22:37.363Z,2.42
2023-01-19T13:25:07.577Z,2.78
2023-01-19T13:27:35.116Z,3.08
2023-01-19T13:30:02.389Z,2.10
2023-01-19T13:32:29.438Z,1.98
2023-01-19T13:34:59.529Z,2.40
2023-01-19T13:37:31.115Z,2.00
2023-01-19T13:39:58.524Z,1.95
2023-01-19T13:42:30.574Z,1.77
2023-01-19T13:45:00.780Z,2.30
2023-01-19T13:47:35.916Z,2.35
2023-01-19T13:50:04.750Z,2.30
2023-01-19T13:52:31.702Z,2.20
2023-01-19T13:55:02.779Z,2.53
2023-01-19T13:57:31.526Z,2.40
2023-01-19T14:00:15.158Z,2.13
2023-01-19T14:02:50.971Z,2.30
2023-01-19T14:05:23.444Z,2.38
2023-01-19T14:08:03.754Z,2.47
2023-01-19T14:10:31.045Z,2.15
2023-01-19T14:12:59.780Z,1.98
2023-01-19T14:15:26.918Z,2.83
2023-01-19T14:18:23.857Z,2.60
2023-01-19T14:21:00.371Z,1.80
2023-01-19T14:23:46.254Z,2.58
2023-01-19T14:26:42.837Z,2.20
2023-01-19T14:29:26.918Z,2.58
2023-01-19T14:32:07.118Z,2.10
2023-01-19T14:34:36.637Z,2.15
2023-01-19T14:37:12.052Z,2.10
2023-01-19T14:39:43.555Z,2.95
2023-01-19T14:42:17.473Z,2.45
2023-01-19T14:47:33.272Z,2.08
2023-01-19T14:50:05.071Z,2.22
2023-01-19T14:52:37.310Z,2.05
2023-01-19T14:55:06.167Z,2.30
2023-01-19T14:57:34.112Z,2.47
2023-01-19T15:00:01.193Z,2.47
2023-01-19T15:02:28.011Z,2.88
2023-01-19T15:04:54.958Z,3.00
2023-01-19T15:07:23.769Z,2.60
2023-01-19T15:09:52.113Z,2.70
2023-01-19T15:12:19.125Z,2.30
2023-01-19T15:14:46.229Z,2.67
2023-01-19T15:17:17.225Z,3.03
2023-01-19T15:19:43.933Z,3.20
2023-01-19T15:22:11.797Z,3.58
2023-01-19T15:24:38.494Z,2.78
2023-01-19T15:27:10.529Z,3.05
2023-01-19T15:29:38.309Z,2.67
2023-01-19T15:32:05.491Z,3.08
2023-01-19T15:34:32.184Z,2.90
2023-01-19T15:36:58.888Z,3.10
2023-01-19T15:39:25.606Z,3.03
2023-01-19T15:41:53.017Z,2.92
2023-01-19T15:44:21.108Z,3.15
2023-01-19T15:46:47.772Z,3.40
2023-01-19T15:49:14.509Z,3.42
2023-01-19T15:51:41.257Z,3.03
2023-01-19T15:54:13.217Z,3.67
2023-01-19T15:56:40.881Z,3.78
2023-01-19T15:59:07.855Z,3.05
2023-01-19T16:01:35.974Z,3.47
2023-01-19T16:04:05.026Z,3.42
2023-01-19T16:06:32.764Z,3.55
2023-01-19T16:09:00.011Z,2.95
2023-01-19T16:11:30.696Z,3.45
2023-01-19T16:13:57.806Z,2.72
2023-01-19T16:16:25.933Z,2.97
2023-01-19T16:18:54.546Z,2.40
2023-01-19T16:21:21.578Z,3.28
2023-01-19T16:23:48.287Z,3.08
2023-01-19T16:26:27.446Z,3.40
2023-01-19T16:28:56.622Z,3.58
2023-01-19T16:31:23.750Z,3.40
2023-01-19T16:33:50.564Z,3.67
2023-01-19T16:36:21.314Z,3.55
2023-01-19T16:38:48.033Z,2.95
2023-01-19T16:41:14.871Z,3.22
2023-01-19T16:43:41.584Z,2.50
2023-01-19T16:46:19.201Z,1.83
2023-01-19T16:48:45.914Z,2.67
2023-01-19T16:51:12.631Z,3.35
2023-01-19T16:53:40.688Z,3.10
2023-01-19T16:56:08.784Z,3.88
2023-01-19T16:58:35.825Z,2.67
2023-01-19T17:01:07.236Z,3.03
2023-01-19T17:03:33.958Z,3.15
2023-01-19T17:06:00.650Z,2.50
2023-01-19T17:08:27.369Z,3.15
2023-01-19T17:10:55.409Z,3.75
2023-01-19T17:13:22.848Z,2.83
2023-01-19T17:15:49.776Z,2.97
2023-01-19T17:18:17.126Z,2.75
2023-01-19T17:20:43.833Z,3.45
2023-01-19T17:23:10.549Z,3.10
2023-01-19T17:25:37.263Z,3.33
2023-01-19T17:28:05.357Z,3.80
2023-01-19T17:30:32.864Z,3.70
2023-01-19T17:32:59.587Z,3.33
2023-01-19T17:35:26.377Z,2.25
2023-01-19T17:37:53.780Z,3.22
2023-01-19T17:40:20.580Z,2.63
2023-01-19T17:43:02.364Z,3.13
2023-01-19T17:45:30.534Z,2.70
2023-01-19T17:47:57.255Z,3.20
2023-01-19T17:50:23.958Z,2.80
2023-01-19T17:52:50.697Z,2.28
2023-01-19T17:55:18.187Z,2.88
2023-01-19T17:57:44.964Z,3.53
2023-01-19T18:00:13.095Z,2.70
2023-01-19T18:02:41.383Z,3.30
2023-01-19T18:05:09.000Z,2.95
2023-01-19T18:07:35.681Z,3.50
2023-01-19T18:10:02.507Z,3.55
2023-01-19T18:12:29.201Z,3.50
2023-01-19T18:14:57.214Z,2.63
2023-01-19T18:17:23.930Z,3.20
2023-01-19T18:19:51.976Z,3.28
2023-01-19T18:22:18.690Z,2.72
2023-01-19T18:24:45.449Z,2.55
2023-01-19T18:27:12.191Z,3.47
2023-01-19T18:29:38.938Z,3.60
2023-01-19T18:32:05.902Z,2.78
2023-01-19T18:34:32.616Z,3.42
2023-01-19T18:37:00.681Z,3.13
2023-01-19T18:39:27.404Z,2.63
2023-01-19T18:41:54.100Z,2.65
2023-01-19T18:44:21.272Z,3.38
2023-01-19T18:46:48.009Z,2.75
2023-01-19T18:49:14.758Z,3.30
2023-01-19T18:51:41.523Z,2.88
2023-01-19T18:54:10.793Z,3.10
2023-01-19T18:56:37.527Z,3.33
2023-01-19T18:59:04.242Z,3.45
2023-01-19T19:01:33.091Z,3.08
2023-01-19T19:04:00.160Z,3.13
2023-01-19T19:06:27.348Z,3.00
2023-01-19T19:08:55.373Z,3.70
2023-01-19T19:11:25.413Z,3.20
2023-01-19T19:13:53.492Z,3.80
2023-01-19T19:16:20.714Z,3.50
2023-01-19T19:18:48.154Z,3.45
2023-01-19T19:21:15.930Z,3.65
2023-01-19T19:23:43.222Z,2.50
2023-01-19T19:26:12.151Z,3.20
2023-01-19T19:28:41.341Z,2.92
2023-01-19T19:31:10.433Z,2.45
2023-01-19T19:33:39.096Z,3.65
2023-01-19T19:36:07.408Z,2.53
2023-01-19T19:38:35.009Z,3.05
2023-01-19T19:41:04.816Z,4.00
2023-01-19T19:43:32.361Z,3.05
2023-01-19T19:46:02.346Z,3.58
2023-01-19T19:48:29.667Z,3.53
2023-01-19T19:51:01.961Z,3.78
2023-01-19T19:53:34.385Z,3.72
2023-01-19T19:56:02.031Z,3.83
2023-01-19T19:58:29.380Z,3.47
2023-01-19T20:00:56.576Z,3.72
2023-01-19T20:03:27.220Z,4.05
2023-01-19T20:05:54.015Z,3.45
2023-01-19T20:08:20.812Z,3.58
2023-01-19T20:10:47.517Z,3.15
2023-01-19T20:13:14.223Z,3.17
2023-01-19T20:15:40.917Z,2.88
2023-01-19T20:18:07.825Z,3.45
2023-01-19T20:20:35.962Z,2.92
2023-01-19T20:23:03.443Z,3.25
2023-01-19T20:25:30.154Z,2.95
2023-01-19T20:27:56.911Z,3.38
2023-01-19T20:30:23.753Z,4.35
2023-01-19T20:32:50.638Z,3.42
2023-01-19T20:35:17.643Z,3.47
2023-01-19T20:37:47.452Z,3.50
2023-01-19T20:40:14.551Z,3.63
2023-01-19T20:42:41.289Z,3.42
2023-01-19T20:45:08.667Z,3.78
2023-01-19T20:47:35.364Z,3.67
2023-01-19T20:50:02.189Z,4.43
2023-01-19T20:52:29.008Z,4.07
2023-01-19T20:54:57.089Z,4.13
2023-01-19T20:57:23.807Z,3.95
2023-01-19T20:59:50.605Z,3.40
2023-01-19T21:02:17.454Z,2.97
2023-01-19T21:04:44.220Z,4.00
2023-01-19T21:07:10.956Z,3.88
2023-01-19T21:09:37.671Z,3.42
2023-01-19T21:12:05.990Z,3.65
2023-01-19T21:14:32.793Z,3.67
2023-01-19T21:16:59.494Z,3.75
2023-01-19T21:19:26.267Z,4.20
2023-01-19T21:21:52.952Z,3.63
2023-01-19T21:24:19.691Z,4.22
2023-01-19T21:26:46.375Z,4.55
2023-01-19T21:29:14.398Z,4.45
2023-01-19T21:31:41.789Z,4.18
2023-01-19T21:34:09.624Z,3.20
2023-01-19T21:36:36.321Z,4.60
2023-01-19T21:39:03.163Z,4.13
2023-01-19T21:41:29.962Z,3.88
2023-01-19T21:43:56.699Z,4.30
2023-01-19T21:46:25.281Z,3.95
2023-01-19T21:48:51.965Z,4.10
2023-01-19T21:51:18.654Z,3.95
2023-01-19T21:53:45.370Z,4.38
2023-01-19T21:56:12.203Z,4.00
2023-01-19T21:58:39.061Z,3.70
2023-01-19T22:01:07.277Z,4.40
2023-01-19T22:03:35.397Z,4.25
2023-01-19T22:06:04.364Z,3.80
2023-01-19T22:08:31.076Z,3.80
2023-01-19T22:11:04.958Z,4.93
2023-01-19T22:13:32.171Z,4.07
2023-01-19T22:16:00.258Z,3.90
2023-01-19T22:18:26.978Z,4.15
2023-01-19T22:20:55.115Z,3.30
2023-01-19T22:23:21.885Z,4.50
2023-01-19T22:25:48.588Z,3.42
2023-01-19T22:28:15.525Z,4.05
2023-01-19T22:30:42.281Z,4.20
2023-01-19T22:33:08.973Z,3.55
2023-01-19T22:35:35.771Z,4.40
2023-01-19T22:38:03.833Z,4.25
2023-01-19T22:40:30.576Z,4.45
2023-01-19T22:42:57.264Z,4.78
2023-01-19T22:45:24.006Z,4.00
2023-01-19T22:47:50.750Z,4.32
2023-01-19T22:50:17.465Z,4.18
2023-01-19T22:52:44.217Z,4.18
2023-01-19T22:55:12.610Z,4.00
2023-01-19T22:57:39.540Z,4.55
2023-01-19T23:00:09.948Z,4.45
2023-01-19T23:02:36.693Z,4.85
2023-01-19T23:05:03.815Z,4.72
2023-01-19T23:07:30.514Z,4.60
2023-01-19T23:09:57.216Z,5.57
2023-01-19T23:12:25.267Z,5.38
2023-01-19T23:14:52.007Z,4.38
2023-01-19T23:17:18.710Z,4.63
2023-01-19T23:19:45.396Z,4.75
2023-01-19T23:22:12.115Z,4.97
2023-01-19T23:24:38.913Z,4.65
2023-01-19T23:27:05.594Z,3.95
2023-01-19T23:29:33.703Z,4.63
2023-01-19T23:32:00.399Z,4.05
2023-01-19T23:34:27.164Z,4.82
2023-01-19T23:36:53.861Z,5.18
2023-01-19T23:39:21.943Z,5.20
2023-01-19T23:41:49.521Z,4.90
2023-01-19T23:44:17.236Z,4.72
2023-01-19T23:46:45.869Z,4.10
2023-01-19T23:49:13.333Z,4.72
2023-01-19T23:51:40.683Z,3.80
2023-01-19T23:54:08.141Z,3.67
2023-01-19T23:56:36.847Z,4.03
2023-01-19T23:59:06.183Z,4.47
